Steamboat, Nevada
Current Conditions -  °F | °C
As of 11:55 AM on Saturday 25 Oct 2014 (Local Time) from KRNO Reporting Station
Scattered Clouds Scattered Clouds  
Wind Chill: 66°   Ceiling: Unl
Heat Index: 66°   Visibility: 10mi
Dew Point: 32°   Wind: 31mph
Humidity: 28%   Direction: 180°S
Pressure: 29.95"   Gusts: 43mph
Location:  39.3905°N, 119.807°W
Report Text: KRNO 251855Z 18027G37KT 10SM FEW065 SCT090 SCT190 19/00 A2995 RMK AO2 PK WND 17041/1808 SLP100 CLDS TPG MTNS DSNT SW T01890000
Loading
Personal Weather Stations






























Interactive Weather Map New forecast layout! Learn more

10-Day Weather Forecast

Advertisements
Track Severe Weather on mobile